Latest Weather Observations for Strahan

IDT60801

Issued at 7:35 pm EST Friday 18 April 2014 (issued every 30 minutes, with the page automatically refreshed every 10 minutes)

About weather observations | Map of weather stations | Latest weather observations for TAS | Other Formats
Station Details ID: 097072 Name: STRAHAN AERODROME Lat: -42.16 Lon: 145.29 Height: 21.0 m
Data from the previous 72 hours. | See also: Recent months at Strahan
Date/Time
EST
Temp
°C
App
Temp
°C
Dew
Point
Rel
Hum
%
Delta-T
°C
Wind Press
QNH
hPa
Press
MSL
hPa
Rain
since 9 am
mm
Dir
 
Spd
km/h
Gust
km/h
Spd
kts
Gust
kts
18/07:30pm 11.1 5.8 6.6 74 2.1 SW 24 35 13 19 1015.7 - 1.8
18/07:00pm 10.5 6.0 7.0 79 1.7 SW 20 28 11 15 1015.5 - 1.8
18/06:30pm 10.9 6.2 7.8 81 1.5 SW 22 33 12 18 1015.4 - 1.8
18/06:00pm 10.8 5.9 6.7 76 1.9 WSW 22 35 12 19 1015.1 1015.1 1.6
18/05:30pm 10.9 6.1 7.4 79 1.7 SW 22 35 12 19 1014.6 - 1.6
18/05:00pm 11.9 6.8 7.8 76 2.0 SW 24 44 13 24 1014.3 - 1.6
18/04:30pm 12.8 7.3 7.7 71 2.5 WSW 26 37 14 20 1013.9 - 1.6
18/04:00pm 13.0 7.0 7.2 68 2.8 WSW 28 39 15 21 1013.4 - 1.4
18/03:30pm 13.7 7.8 7.7 67 3.0 WSW 28 39 15 21 1013.2 - 1.4
18/03:00pm 13.2 7.7 7.6 69 2.7 WSW 26 35 14 19 1013.0 1013.0 1.4
18/02:30pm 14.5 8.9 8.7 68 2.9 WSW 28 37 15 20 1012.7 - 1.4
18/02:00pm 13.7 7.9 7.9 68 2.9 WSW 28 35 15 19 1012.3 - 1.4
18/01:30pm 13.7 7.6 6.6 62 3.4 WSW 28 37 15 20 1012.2 - 1.4
18/01:00pm 13.8 6.8 6.2 60 3.6 WSW 32 43 17 23 1012.1 - 1.4
18/12:30pm 14.4 8.6 8.1 66 3.1 WSW 28 39 15 21 1012.1 - 1.4
18/12:00pm 13.8 7.6 7.8 67 3.0 WSW 30 39 16 21 1012.1 1012.1 1.4
18/11:30am 12.8 6.0 9.3 79 1.8 WSW 35 48 19 26 1012.2 - 1.4
18/11:25am 13.8 8.2 10.0 78 2.0 WSW 30 48 16 26 1012.1 - 1.4
18/11:22am 14.4 9.4 10.8 79 1.9 WSW 28 43 15 23 1012.1 - 1.4
18/11:00am 12.3 11.1 10.4 88 1.0 SSW 7 11 4 6 1012.2 - 1.4
18/10:30am 10.8 10.0 9.6 92 0.6 ESE 4 7 2 4 1012.2 - 1.4
18/10:27am 10.6 10.1 9.5 93 0.6 S 2 7 1 4 1012.3 - 1.4
18/10:08am 10.7 7.0 10.2 97 0.3 SW 20 28 11 15 1012.7 - 1.0
18/10:00am 11.0 9.1 10.5 97 0.3 NNE 11 17 6 9 1011.7 - 0.6
18/09:30am 10.8 9.2 10.2 96 0.3 NE 9 13 5 7 1011.6 - 0.2
18/09:00am 10.8 9.4 9.7 93 0.6 SE 7 9 4 5 1011.8 1011.8 4.2
18/08:30am 10.9 6.9 9.2 89 0.8 WSW 20 30 11 16 1012.2 - 3.6
18/08:21am 11.0 6.3 9.4 90 0.8 WSW 24 33 13 18 1012.0 - 3.4
18/08:07am 11.1 4.2 10.3 95 0.4 WSW 37 44 20 24 1011.7 - 2.8
18/08:00am 10.6 7.3 9.7 94 0.5 WSW 17 26 9 14 1011.3 - 2.6
18/07:51am 10.6 4.7 9.0 90 0.8 SW 30 54 16 29 1010.7 - 2.0
18/07:47am 10.8 3.6 9.1 89 0.8 SW 37 54 20 29 1010.6 - 2.0
18/07:44am 11.4 4.5 10.3 93 0.6 W 37 48 20 26 1010.3 - 1.8
18/07:41am 11.9 5.6 11.0 94 0.5 NNW 35 54 19 29 1009.8 - 1.8
18/07:32am 12.6 5.3 11.5 93 0.6 NW 41 54 22 29 1009.4 - 1.4
18/07:30am 13.1 9.1 11.8 92 0.7 N 24 48 13 26 1009.1 - 1.4
18/07:27am 13.4 9.8 11.8 90 0.9 N 22 30 12 16 1008.7 - 0.6
18/07:00am 14.0 10.5 10.8 81 1.7 N 20 32 11 17 1008.3 - 0.0
18/06:30am 13.8 10.8 10.6 81 1.7 N 17 26 9 14 1008.7 - 0.0
18/06:00am 13.3 11.1 10.7 84 1.4 N 13 19 7 10 1009.0 1009.0 0.0
18/05:30am 14.0 10.8 11.2 83 1.5 N 19 26 10 14 1009.5 - 0.0
18/05:00am 13.8 10.2 11.7 87 1.1 N 22 32 12 17 1009.9 - 0.0
18/04:30am 13.6 10.3 11.5 87 1.1 N 20 28 11 15 1010.4 - 0.0
18/04:00am 14.1 10.0 11.4 84 1.4 N 24 35 13 19 1010.6 - 0.0
18/03:30am 14.3 11.5 11.5 83 1.5 N 17 26 9 14 1011.2 - 0.0
18/03:00am 14.1 10.9 11.4 84 1.4 N 19 26 10 14 1011.8 1011.8 0.0
18/02:30am 14.4 11.4 12.1 86 1.2 N 19 28 10 15 1012.3 - 0.0
18/02:00am 14.7 10.4 12.2 85 1.4 NNW 26 37 14 20 1012.6 - 0.0
18/01:30am 14.8 11.6 11.4 80 1.8 N 19 30 10 16 1012.8 - 0.0
18/01:00am 14.9 11.1 11.1 78 2.0 N 22 33 12 18 1013.0 - 0.0
18/12:30am 14.1 11.1 10.7 80 1.8 N 17 26 9 14 1013.3 - 0.0
18/12:00am 14.7 12.2 10.9 78 2.0 NNE 15 22 8 12 1013.7 1013.7 0.0
 
Date/Time
EST
Temp
°C
App
Temp
°C
Dew
Point
Rel
Hum
%
Delta-T
°C
Wind Press
QNH
hPa
Press
MSL
hPa
Rain
since 9 am
mm
Dir
 
Spd
km/h
Gust
km/h
Spd
kts
Gust
kts
17/11:30pm 14.5 11.6 10.9 79 1.9 N 17 28 9 15 1014.0 - 0.0
17/11:00pm 14.3 11.8 10.9 80 1.8 NNE 15 24 8 13 1014.3 - 0.0
17/10:30pm 14.1 11.2 10.9 81 1.7 NNE 17 24 9 13 1014.9 - 0.0
17/10:00pm 14.4 12.2 10.8 79 1.9 N 13 22 7 12 1015.5 - 0.0
17/09:30pm 14.8 13.1 11.2 79 1.9 N 11 15 6 8 1015.7 - 0.0
17/09:00pm 14.9 13.2 11.3 79 1.9 N 11 15 6 8 1015.9 1015.9 0.0
17/08:30pm 15.0 13.0 11.6 80 1.8 N 13 17 7 9 1016.2 - 0.0
17/08:00pm 14.5 12.5 11.5 82 1.6 N 13 15 7 8 1016.2 - 0.0
17/07:30pm 14.7 13.1 11.7 82 1.6 N 11 13 6 7 1016.3 - 0.0
17/07:00pm 15.1 12.7 11.5 79 1.9 N 15 19 8 10 1016.3 - 0.0
17/06:30pm 15.7 14.6 13.2 85 1.4 N 11 15 6 8 1016.4 - 0.0
17/06:00pm 16.2 15.5 14.2 88 1.1 N 11 15 6 8 1016.5 1016.5 0.0
17/05:30pm 16.3 14.6 14.7 90 0.9 NNW 17 22 9 12 1016.5 - 0.0
17/05:00pm 16.4 15.0 14.6 89 1.0 NNW 15 20 8 11 1016.5 - 0.0
17/04:30pm 16.5 15.5 14.5 88 1.1 NNW 13 17 7 9 1016.5 - 0.0
17/04:00pm 16.5 15.0 14.3 87 1.3 NW 15 19 8 10 1016.7 - 0.0
17/03:30pm 16.8 15.2 13.9 83 1.6 NW 15 20 8 11 1016.7 - 0.0
17/03:00pm 17.7 15.2 13.4 76 2.4 NW 19 22 10 12 1016.8 1016.8 0.0
17/02:30pm 19.1 16.7 13.9 72 3.0 NW 19 24 10 13 1017.0 - 0.0
17/02:00pm 19.5 17.6 14.1 71 3.1 NW 17 22 9 12 1017.3 - 0.0
17/01:30pm 18.7 16.1 13.1 70 3.2 WNW 19 24 10 13 1017.8 - 0.0
17/01:00pm 17.8 14.8 12.5 71 2.9 WNW 20 28 11 15 1018.3 - 0.0
17/12:30pm 20.3 17.4 12.3 60 4.5 N 19 30 10 16 1018.5 - 0.0
17/12:00pm 19.2 15.8 10.7 58 4.6 N 19 32 10 17 1019.0 1018.9 0.0
17/11:30am 18.8 15.6 11.4 62 4.1 N 19 28 10 15 1019.4 - 0.0
17/11:00am 18.1 15.1 10.5 61 4.1 N 17 32 9 17 1019.6 - 0.0
17/10:30am 17.7 15.1 11.9 69 3.2 N 17 28 9 15 1019.6 - 0.0
17/10:00am 17.0 14.8 12.1 73 2.7 NNE 15 26 8 14 1019.6 - 0.0
17/09:30am 15.8 13.9 11.8 77 2.2 NNE 13 24 7 13 1019.9 - 0.0
17/09:00am 14.4 13.7 12.1 86 1.2 N 7 13 4 7 1020.0 1019.9 0.0
17/08:30am 12.1 10.7 10.8 92 0.7 N 9 11 5 6 1019.9 - 0.0
17/08:00am 10.0 8.6 9.5 97 0.2 NNE 7 11 4 6 1019.9 - 0.0
17/07:30am 8.5 6.7 8.1 97 0.2 NNE 7 11 4 6 1019.9 - 0.0
17/07:00am 8.8 6.7 8.2 96 0.3 NNE 9 13 5 7 1019.9 - 0.0
17/06:30am 9.1 6.7 8.6 97 0.2 NNE 11 15 6 8 1019.7 - 0.0
17/06:00am 8.5 6.7 8.1 97 0.2 N 7 9 4 5 1019.9 1019.8 0.0
17/05:30am 8.3 6.1 7.9 97 0.2 ENE 9 13 5 7 1019.7 - 0.0
17/05:00am 8.2 6.3 7.4 95 0.4 E 7 11 4 6 1019.8 - 0.0
17/04:30am 9.4 7.0 8.6 95 0.4 NE 11 15 6 8 1019.8 - 0.0
17/04:00am 9.4 7.4 8.6 95 0.4 N 9 11 5 6 1019.6 - 0.0
17/03:30am 9.4 7.4 8.6 95 0.4 N 9 9 5 5 1019.5 - 0.0
17/03:00am 9.7 8.4 9.1 96 0.3 N 6 7 3 4 1019.8 1019.7 0.0
17/02:30am 9.1 6.7 8.5 96 0.3 N 11 11 6 6 1019.8 - 0.0
17/02:00am 9.8 7.2 9.2 96 0.3 NNE 13 15 7 8 1019.9 - 0.0
17/01:30am 9.9 8.0 9.1 95 0.4 NNE 9 13 5 7 1020.1 - 0.0
17/01:00am 10.3 7.8 9.7 96 0.3 N 13 17 7 9 1019.9 - 0.0
17/12:30am 10.5 8.8 10.0 97 0.3 N 9 11 5 6 1020.0 - 0.0
17/12:00am 10.9 10.4 10.6 98 0.2 N 4 7 2 4 1020.2 1020.1 0.0
 
Date/Time
EST
Temp
°C
App
Temp
°C
Dew
Point
Rel
Hum
%
Delta-T
°C
Wind Press
QNH
hPa
Press
MSL
hPa
Rain
since 9 am
mm
Dir
 
Spd
km/h
Gust
km/h
Spd
kts
Gust
kts
16/11:30pm 10.8 9.7 10.5 98 0.2 NNE 7 13 4 7 1020.3 - 0.0
16/11:00pm 10.1 8.7 9.6 97 0.3 N 7 9 4 5 1020.4 - 0.0
16/10:30pm 11.5 10.6 11.2 98 0.2 NNE 7 9 4 5 1020.2 - 0.0
16/10:00pm 12.0 10.8 11.7 98 0.2 NNE 9 11 5 6 1020.2 - 0.0
16/09:30pm 12.9 12.0 12.6 98 0.2 NE 9 11 5 6 1020.4 - 0.0
16/09:00pm 13.1 12.8 12.6 97 0.3 S 6 9 3 5 1020.3 1020.2 0.0
16/08:30pm 13.6 13.7 12.8 95 0.4 SSE 4 6 2 3 1019.9 - 0.0
16/08:03pm 14.3 14.1 13.5 95 0.4 ESE 7 11 4 6 1019.7 - 0.0
16/08:00pm 14.4 14.4 13.6 95 0.4 E 6 11 3 6 1019.7 - 0.0
16/07:38pm 14.3 14.7 13.7 96 0.3 SE 4 9 2 5 1019.7 - 0.0
16/07:30pm 14.3 13.8 13.7 96 0.3 SE 9 13 5 7 1019.7 - 0.0
16/07:26pm 14.3 13.4 13.7 96 0.3 SE 11 13 6 7 1019.7 - 0.0
16/07:00pm 14.3 14.1 13.5 95 0.4 SSE 7 9 4 5 1019.8 - 0.0
16/06:56pm 14.2 13.9 13.2 94 0.6 SSE 7 9 4 5 1019.8 - 0.0
16/06:51pm 14.2 13.5 13.2 94 0.6 SSE 9 11 5 6 1019.8 - 0.0
16/06:33pm 14.1 13.7 13.1 94 0.6 SSE 7 9 4 5 1019.8 - 0.0
16/06:30pm 14.1 13.7 13.1 94 0.6 SSE 7 9 4 5 1019.8 - 0.0
16/06:09pm 14.5 14.2 13.4 93 0.6 SE 7 9 4 5 1019.7 - 0.0
16/06:00pm 14.7 14.6 13.4 92 0.7 S 6 7 3 4 1019.8 1019.7 0.0
16/05:46pm 15.0 14.8 13.5 91 0.8 S 7 9 4 5 1019.8 - 0.0
16/05:30pm 15.2 15.0 13.6 90 0.9 SW 7 9 4 5 1019.8 - 0.0
16/05:00pm 16.2 15.8 13.1 82 1.7 W 7 9 4 5 1019.8 - 0.0
16/04:30pm 16.3 15.7 13.4 83 1.6 W 9 13 5 7 1019.6 - 0.0
16/04:00pm 16.6 14.8 13.3 81 1.8 W 15 19 8 10 1019.5 - 0.0
16/03:30pm 17.0 14.7 13.1 78 2.2 W 17 22 9 12 1019.4 - 0.0
16/03:00pm 16.9 15.0 13.0 78 2.2 WNW 15 19 8 10 1019.3 1019.2 0.0
16/02:30pm 17.5 15.1 12.6 73 2.7 W 17 20 9 11 1019.3 - 0.0
16/02:00pm 18.2 16.2 12.6 70 3.1 WNW 15 20 8 11 1019.3 - 0.0
16/01:30pm 17.2 14.7 11.0 67 3.3 W 15 20 8 11 1019.6 - 0.0
16/01:00pm 18.1 16.1 11.4 65 3.7 WNW 13 17 7 9 1019.9 - 0.0
16/12:30pm 18.1 16.0 11.0 63 3.8 NNW 13 19 7 10 1020.3 - 0.0
16/12:00pm 17.6 15.2 10.2 62 3.9 N 13 22 7 12 1020.6 1020.5 0.0
16/11:30am 17.2 15.1 11.0 67 3.3 NNE 13 19 7 10 1020.9 - 0.0
16/11:00am 16.8 15.1 11.3 70 3.0 NNE 11 19 6 10 1021.0 - 0.0
16/10:30am 15.6 14.8 11.2 75 2.4 WNW 6 9 3 5 1021.2 - 0.0
16/10:00am 15.0 14.0 11.0 77 2.1 NNW 7 11 4 6 1021.5 - 0.0
16/09:30am 14.5 12.1 10.1 75 2.3 NE 13 17 7 9 1021.5 - 0.0
16/09:00am 14.2 11.8 10.2 77 2.1 NNE 13 19 7 10 1021.7 1021.6 0.0
16/08:30am 13.3 10.4 9.7 79 1.8 NNE 15 20 8 11 1021.7 - 0.0
16/08:00am 12.1 9.9 9.3 83 1.4 NE 11 20 6 11 1021.7 - 0.0
16/07:30am 11.5 10.1 9.4 87 1.1 ENE 7 11 4 6 1021.7 - 0.0
16/07:00am 10.9 9.0 9.2 89 0.8 NE 9 13 5 7 1021.6 - 0.0
16/06:30am 10.5 8.6 9.1 91 0.7 NE 9 13 5 7 1021.5 - 0.0
16/06:00am 9.9 8.3 8.8 93 0.5 NE 7 11 4 6 1021.5 1021.4 0.0
16/05:30am 9.2 7.7 8.3 94 0.4 NE 6 11 3 6 1021.4 - 0.0
16/05:00am 9.9 8.4 9.0 94 0.4 ENE 7 11 4 6 1021.7 - 0.0
16/04:30am 9.9 7.6 9.1 95 0.4 NE 11 13 6 7 1021.8 - 0.0
16/04:00am 9.6 7.8 9.3 98 0.1 NE 9 13 5 7 1021.8 - 0.0
16/03:30am 8.8 7.1 8.4 97 0.2 E 7 7 4 4 1022.1 - 0.0
16/03:00am 9.4 7.1 8.9 97 0.2 NE 11 15 6 8 1022.1 1022.1 0.0
16/02:30am 9.6 7.4 9.3 98 0.1 NNE 11 13 6 7 1022.6 - 0.0
16/02:00am 9.0 8.7 8.5 97 0.2 CALM 0 0 0 0 1022.7 - 0.0
16/01:30am 9.4 7.8 8.9 97 0.2 NNE 7 9 4 5 1023.1 - 0.0
16/01:00am 9.6 7.7 9.0 96 0.3 NNE 9 11 5 6 1023.3 - 0.0
16/12:30am 9.9 8.4 9.3 96 0.3 NNE 7 11 4 6 1023.4 - 0.0
16/12:00am 10.2 8.8 9.6 96 0.3 NNE 7 9 4 5 1023.5 1023.5 0.0
 
Date/Time
EST
Temp
°C
App
Temp
°C
Dew
Point
Rel
Hum
%
Delta-T
°C
Wind Press
QNH
hPa
Press
MSL
hPa
Rain
since 9 am
mm
Dir
 
Spd
km/h
Gust
km/h
Spd
kts
Gust
kts
15/11:30pm 10.4 9.0 9.5 94 0.5 NNE 7 9 4 5 1023.7 - 0.0
15/11:00pm 10.9 8.5 10.0 94 0.5 NNE 13 15 7 8 1024.1 - 0.0
15/10:30pm 11.4 9.8 10.3 93 0.6 NNE 9 13 5 7 1024.2 - 0.0
15/10:00pm 11.7 10.5 10.4 92 0.7 N 7 11 4 6 1024.3 - 0.0
15/09:30pm 12.1 10.7 10.8 92 0.7 NNE 9 13 5 7 1024.3 - 0.0
15/09:00pm 12.1 10.3 10.8 92 0.7 NNE 11 13 6 7 1024.1 1024.1 0.0
15/08:30pm 11.8 10.4 10.9 94 0.5 NNE 9 11 5 6 1024.0 - 0.0
15/08:00pm 11.6 10.1 10.7 94 0.5 NNE 9 13 5 7 1024.0 - 0.0

Other Formats:

Comma delimited format used in spreadsheet applications
http://www.bom.gov.au/fwo/IDT60801/IDT60801.94956.axf

JavaScript Object Notation format (JSON) in row-major order
http://www.bom.gov.au/fwo/IDT60801/IDT60801.94956.json